Time;durP1;ratioP1;P1;durP2;ratioP2;P2;SDS_P1;SDS_P2;PMS_P1;PMS_P2;Temp;Humidity;BMP_temperature;BMP_pressure;BME280_temperature;BME280_humidity;BME280_pressure;Samples;Min_cycle;Max_cycle;Signal;HPM_P1;HPM_P2
2022/07/03 00:02:13;;;;;;;7.68;3.80;;;;;14.90;96688.00;;;;8323394;28;20232;-68
2022/07/03 00:06:16;;;;;;;8.55;3.70;;;;;14.80;96681.00;;;;8323584;28;20197;-69
2022/07/03 00:10:20;;;;;;;9.23;4.28;;;;;14.70;96678.00;;;;8320554;28;20201;-68
2022/07/03 00:14:25;;;;;;;4.32;3.40;;;;;14.60;96677.00;;;;8325044;28;20204;-68
2022/07/03 00:18:28;;;;;;;5.57;3.75;;;;;14.70;96670.00;;;;8317181;28;20240;-68
2022/07/03 00:22:34;;;;;;;10.57;3.80;;;;;14.70;96678.00;;;;8318866;28;20597;-68
2022/07/03 00:26:40;;;;;;;3.33;3.13;;;;;14.80;96683.00;;;;8315327;28;20307;-69
2022/07/03 00:30:48;;;;;;;7.18;3.20;;;;;14.80;96689.00;;;;8322044;28;20212;-67
2022/07/03 00:34:52;;;;;;;4.97;3.28;;;;;14.80;96683.00;;;;8320149;28;20308;-68
2022/07/03 00:38:56;;;;;;;5.13;4.05;;;;;14.80;96685.00;;;;8318273;28;20733;-68
2022/07/03 00:43:01;;;;;;;5.70;4.03;;;;;14.70;96688.00;;;;8321261;28;20219;-69
2022/07/03 00:47:06;;;;;;;7.97;4.22;;;;;14.60;96678.00;;;;8323432;28;20219;-68
2022/07/03 00:51:15;;;;;;;4.53;3.55;;;;;14.70;96670.00;;;;8319613;28;20358;-66
2022/07/03 00:55:20;;;;;;;5.18;3.95;;;;;14.70;96656.00;;;;8319721;28;20286;-68
2022/07/03 00:59:23;;;;;;;4.50;4.10;;;;;14.40;96655.00;;;;8318427;28;20292;-67
2022/07/03 01:03:28;;;;;;;6.95;4.22;;;;;14.30;96661.00;;;;8320866;28;20233;-69
2022/07/03 01:07:42;;;;;;;8.38;3.70;;;;;14.20;96655.00;;;;8314710;28;20204;-68
2022/07/03 01:11:51;;;;;;;4.32;3.83;;;;;14.30;96658.00;;;;8319810;28;20567;-69
2022/07/03 01:16:06;;;;;;;4.63;4.18;;;;;14.20;96644.00;;;;8318182;28;21462;-68
2022/07/03 01:20:12;;;;;;;3.75;3.45;;;;;14.20;96647.00;;;;8316823;28;20196;-69
2022/07/03 01:24:28;;;;;;;5.65;4.38;;;;;14.20;96650.00;;;;8319185;28;20241;-68
2022/07/03 01:28:34;;;;;;;5.13;3.72;;;;;14.10;96645.00;;;;8316690;28;20231;-67
2022/07/03 01:32:42;;;;;;;5.38;4.10;;;;;14.10;96644.00;;;;8316175;28;20288;-68
2022/07/03 01:36:48;;;;;;;4.72;4.10;;;;;14.00;96641.00;;;;8313820;28;20211;-67
2022/07/03 01:40:56;;;;;;;7.93;4.00;;;;;14.00;96635.00;;;;8316270;28;20211;-66
2022/07/03 01:45:01;;;;;;;6.80;4.40;;;;;14.00;96634.00;;;;8320360;28;20202;-68
2022/07/03 01:49:09;;;;;;;7.75;4.30;;;;;13.80;96624.00;;;;8317606;28;20210;-69
2022/07/03 01:53:13;;;;;;;5.95;4.47;;;;;13.70;96635.00;;;;8318704;28;20207;-68
2022/07/03 01:57:19;;;;;;;9.90;4.30;;;;;13.70;96626.00;;;;8318009;28;20281;-69
2022/07/03 02:01:31;;;;;;;7.28;5.70;;;;;13.70;96627.00;;;;8317550;28;20241;-69
2022/07/03 02:05:43;;;;;;;4.50;4.10;;;;;13.70;96633.00;;;;8314442;28;20205;-68
2022/07/03 02:09:51;;;;;;;4.95;4.15;;;;;13.70;96633.00;;;;8311365;28;20319;-68
2022/07/03 02:14:10;;;;;;;6.13;4.18;;;;;13.60;96636.00;;;;8316336;28;20766;-68
2022/07/03 02:18:26;;;;;;;7.10;4.32;;;;;13.50;96629.00;;;;8314690;28;20574;-68
2022/07/03 02:22:34;;;;;;;8.02;4.20;;;;;13.50;96629.00;;;;8309810;28;20702;-69
2022/07/03 02:26:40;;;;;;;5.85;4.50;;;;;13.50;96626.00;;;;8308421;28;20196;-68
2022/07/03 02:30:49;;;;;;;8.23;4.30;;;;;13.40;96626.00;;;;8317536;28;20212;-69
2022/07/03 02:35:01;;;;;;;5.68;4.47;;;;;13.30;96620.00;;;;8318181;28;20279;-69
2022/07/03 02:39:09;;;;;;;6.95;4.43;;;;;13.30;96623.00;;;;8315268;28;20279;-68
2022/07/03 02:43:19;;;;;;;5.40;4.57;;;;;13.30;96620.00;;;;8316092;28;20223;-69
2022/07/03 02:47:29;;;;;;;7.55;4.32;;;;;13.30;96629.00;;;;8316526;28;20770;-68
2022/07/03 02:51:40;;;;;;;5.50;4.22;;;;;13.40;96625.00;;;;8313348;28;20562;-69
2022/07/03 02:55:44;;;;;;;7.45;4.10;;;;;13.40;96621.00;;;;8309077;28;20257;-69
2022/07/03 02:59:54;;;;;;;8.90;4.00;;;;;13.30;96622.00;;;;8313927;28;20228;-67
2022/07/03 03:04:21;;;;;;;7.60;4.53;;;;;13.20;96624.00;;;;8406684;23;20228;-67
2022/07/03 03:08:43;;;;;;;11.40;4.60;;;;;13.10;96624.00;;;;8378077;28;20322;-68
2022/07/03 03:12:48;;;;;;;11.65;4.68;;;;;13.10;96621.00;;;;8383323;28;20541;-68
2022/07/03 03:16:53;;;;;;;12.40;4.90;;;;;13.10;96630.00;;;;8382876;28;20217;-67
2022/07/03 03:21:00;;;;;;;9.02;4.32;;;;;13.10;96632.00;;;;8378270;28;20192;-67
2022/07/03 03:25:06;;;;;;;7.05;4.30;;;;;13.00;96638.00;;;;8380737;28;20729;-68
2022/07/03 03:29:09;;;;;;;8.25;4.63;;;;;12.90;96636.00;;;;8383375;28;20647;-68
2022/07/03 03:33:13;;;;;;;8.05;4.38;;;;;13.00;96638.00;;;;8379191;28;20297;-68
2022/07/03 03:37:16;;;;;;;11.98;5.00;;;;;13.00;96638.00;;;;8385349;28;20205;-68
2022/07/03 03:41:21;;;;;;;11.55;4.38;;;;;12.90;96640.00;;;;8390282;28;20601;-69
2022/07/03 03:45:24;;;;;;;7.55;4.65;;;;;12.90;96651.00;;;;8388661;28;20203;-69
2022/07/03 03:49:28;;;;;;;9.80;4.95;;;;;13.00;96649.00;;;;8377816;28;20204;-67
2022/07/03 03:53:31;;;;;;;6.70;4.22;;;;;13.20;96653.00;;;;8389818;28;20613;-67
2022/07/03 03:57:37;;;;;;;9.63;3.95;;;;;13.50;96658.00;;;;8384958;28;20282;-67
2022/07/03 04:01:40;;;;;;;5.40;3.78;;;;;13.60;96657.00;;;;8387534;28;20201;-67
2022/07/03 04:05:43;;;;;;;6.25;3.92;;;;;13.80;96661.00;;;;8369963;28;20253;-68
2022/07/03 04:10:20;;;;;;;6.28;3.95;;;;;14.00;96655.00;;;;8368450;28;20199;-68
2022/07/03 04:14:25;;;;;;;12.20;3.85;;;;;14.50;96653.00;;;;8368559;28;20246;-68
2022/07/03 04:18:59;;;;;;;8.90;4.15;;;;;15.00;96654.00;;;;8368337;28;20294;-68
2022/07/03 04:23:02;;;;;;;6.57;3.50;;;;;15.50;96657.00;;;;8368182;28;20315;-68
2022/07/03 04:27:06;;;;;;;7.20;3.90;;;;;16.00;96653.00;;;;8367237;28;20279;-69
2022/07/03 04:31:44;;;;;;;4.00;3.33;;;;;16.40;96653.00;;;;8368967;28;20307;-69
2022/07/03 04:35:47;;;;;;;9.93;3.85;;;;;16.70;96655.00;;;;8367499;28;20662;-68
2022/07/03 04:40:24;;;;;;;6.72;4.20;;;;;17.00;96660.00;;;;8367478;28;20287;-68
2022/07/03 04:44:27;;;;;;;6.03;3.80;;;;;17.50;96656.00;;;;8366127;28;20232;-68
2022/07/03 04:49:08;;;;;;;6.50;3.60;;;;;17.80;96661.00;;;;8364591;28;20225;-69
2022/07/03 04:53:39;;;;;;;5.05;3.50;;;;;18.10;96671.00;;;;8367095;28;20236;-68
2022/07/03 04:58:16;;;;;;;5.45;3.25;;;;;18.40;96664.00;;;;8367685;28;20542;-68
2022/07/03 05:02:19;;;;;;;8.82;3.42;;;;;18.70;96674.00;;;;8365871;28;20335;-68
2022/07/03 05:06:24;;;;;;;7.43;4.10;;;;;18.90;96674.00;;;;8368440;28;20200;-68
2022/07/03 05:10:28;;;;;;;5.03;3.55;;;;;18.90;96680.00;;;;8373578;28;20219;-68
2022/07/03 05:14:31;;;;;;;4.22;3.60;;;;;19.00;96678.00;;;;8378650;28;20214;-69
2022/07/03 05:18:35;;;;;;;6.07;3.90;;;;;19.20;96670.00;;;;8368944;28;20595;-69
2022/07/03 05:22:40;;;;;;;6.57;3.70;;;;;19.40;96669.00;;;;8380377;28;20216;-69
2022/07/03 05:26:43;;;;;;;7.38;3.50;;;;;19.60;96671.00;;;;8365319;28;20320;-69
2022/07/03 05:30:46;;;;;;;9.32;3.88;;;;;19.80;96672.00;;;;8370199;28;20202;-70
2022/07/03 05:34:49;;;;;;;10.23;3.97;;;;;20.10;96687.00;;;;8367977;28;20208;-69
2022/07/03 05:43:14;;;;;;;10.35;3.80;;;;;21.20;96692.00;;;;8375689;28;20300;-69
2022/07/03 05:47:18;;;;;;;5.90;3.55;;;;;21.70;96694.00;;;;8368450;28;20278;-69
2022/07/03 05:51:21;;;;;;;3.95;3.65;;;;;22.40;96687.00;;;;8365930;28;20283;-69
2022/07/03 05:55:26;;;;;;;3.88;3.28;;;;;23.00;96690.00;;;;8375422;28;20629;-70
2022/07/03 05:59:29;;;;;;;5.43;3.60;;;;;23.50;96694.00;;;;8367657;28;20207;-68
2022/07/03 06:03:33;;;;;;;3.17;2.95;;;;;24.10;96694.00;;;;8367861;28;20247;-68
2022/07/03 06:07:37;;;;;;;4.35;3.33;;;;;24.70;96696.00;;;;8367477;28;20223;-70
2022/07/03 06:11:41;;;;;;;5.07;3.20;;;;;25.20;96701.00;;;;8379215;28;20813;-71
2022/07/03 06:15:44;;;;;;;3.28;2.97;;;;;25.70;96699.00;;;;8374445;28;20197;-70
2022/07/03 06:19:47;;;;;;;6.43;3.08;;;;;26.10;96705.00;;;;8365114;28;20552;-71
2022/07/03 06:23:51;;;;;;;3.17;2.88;;;;;26.50;96707.00;;;;8373800;28;20222;-70
2022/07/03 06:27:55;;;;;;;4.05;3.08;;;;;26.90;96701.00;;;;8366362;28;20188;-71
2022/07/03 06:31:59;;;;;;;2.83;2.63;;;;;27.50;96708.00;;;;8365775;28;20862;-70
2022/07/03 06:36:03;;;;;;;3.63;2.53;;;;;27.90;96696.00;;;;8366045;28;20205;-69
2022/07/03 06:40:08;;;;;;;6.25;2.80;;;;;28.30;96699.00;;;;8363017;28;20279;-71
2022/07/03 06:44:12;;;;;;;3.58;2.60;;;;;27.80;96696.00;;;;8373978;28;20470;-68
2022/07/03 06:48:16;;;;;;;4.80;2.80;;;;;29.00;96695.00;;;;8369245;28;20690;-68
2022/07/03 06:52:19;;;;;;;3.50;2.60;;;;;28.90;96709.00;;;;8366092;28;20200;-68
2022/07/03 06:56:22;;;;;;;2.78;2.58;;;;;29.10;96714.00;;;;8370320;28;20733;-68
2022/07/03 07:00:33;;;;;;;2.70;2.50;;;;;29.30;96715.00;;;;8367324;28;20203;-69
2022/07/03 07:04:36;;;;;;;2.78;2.58;;;;;29.50;96708.00;;;;8366397;28;20319;-68
2022/07/03 07:08:40;;;;;;;3.03;2.53;;;;;29.20;96717.00;;;;8360517;28;20468;-68
2022/07/03 07:12:43;;;;;;;4.40;2.60;;;;;30.00;96722.00;;;;8372148;28;20204;-67
2022/07/03 07:16:51;;;;;;;5.18;2.60;;;;;30.40;96715.00;;;;8364523;28;20204;-69
2022/07/03 07:20:54;;;;;;;2.63;2.42;;;;;30.70;96710.00;;;;8370253;28;20223;-68
2022/07/03 07:24:57;;;;;;;6.40;2.30;;;;;30.70;96716.00;;;;8369891;28;20229;-68
2022/07/03 07:29:03;;;;;;;3.88;2.47;;;;;30.70;96708.00;;;;8369507;28;20278;-70
2022/07/03 07:33:08;;;;;;;2.40;2.30;;;;;30.90;96713.00;;;;8379868;28;20219;-69
2022/07/03 07:37:11;;;;;;;2.58;2.42;;;;;31.10;96712.00;;;;8364716;28;20206;-75
2022/07/03 07:41:15;;;;;;;5.07;2.50;;;;;31.50;96715.00;;;;8363489;28;20197;-73
2022/07/03 07:45:18;;;;;;;1.95;1.92;;;;;32.00;96705.00;;;;8365991;28;20216;-68
2022/07/03 07:49:23;;;;;;;2.58;2.38;;;;;32.30;96715.00;;;;8367427;28;20255;-68
2022/07/03 07:53:27;;;;;;;2.63;2.40;;;;;32.40;96713.00;;;;8369520;28;20696;-68
2022/07/03 07:57:36;;;;;;;2.45;2.30;;;;;32.70;96708.00;;;;8362655;28;20253;-68
2022/07/03 08:06:03;;;;;;;4.30;2.15;;;;;33.50;96699.00;;;;8372615;28;20216;-69
2022/07/03 08:10:09;;;;;;;4.57;2.50;;;;;34.00;96707.00;;;;8358571;28;20185;-67
2022/07/03 08:14:12;;;;;;;2.20;2.00;;;;;34.10;96711.00;;;;8368174;28;20197;-68
2022/07/03 08:18:16;;;;;;;2.20;2.00;;;;;34.40;96705.00;;;;8360190;28;20232;-68
2022/07/03 08:22:20;;;;;;;2.25;2.15;;;;;34.70;96711.00;;;;8372117;28;20649;-68
2022/07/03 08:26:24;;;;;;;2.50;2.35;;;;;34.90;96701.00;;;;8364557;28;20775;-69
2022/07/03 08:30:32;;;;;;;2.25;2.08;;;;;34.90;96701.00;;;;8368906;28;20201;-70
2022/07/03 08:34:35;;;;;;;2.08;1.98;;;;;35.10;96697.00;;;;8371228;28;20676;-70
2022/07/03 08:38:39;;;;;;;3.20;2.00;;;;;35.30;96697.00;;;;8364367;28;20201;-71
2022/07/03 08:42:46;;;;;;;4.50;2.10;;;;;35.40;96699.00;;;;8375578;28;20188;-72
2022/07/03 08:46:51;;;;;;;2.10;1.92;;;;;35.50;96698.00;;;;8363313;28;20237;-73
2022/07/03 08:50:54;;;;;;;2.10;1.95;;;;;35.70;96692.00;;;;8363718;28;20214;-71
2022/07/03 08:55:23;;;;;;;2.10;2.00;;;;;35.80;96696.00;;;;8371189;28;20200;-71
2022/07/03 08:59:43;;;;;;;2.75;1.90;;;;;36.20;96700.00;;;;8371817;28;20566;-70
2022/07/03 09:03:51;;;;;;;1.95;1.80;;;;;36.80;96687.00;;;;8358082;28;20241;-73
2022/07/03 09:07:56;;;;;;;1.92;1.83;;;;;36.90;96684.00;;;;8344143;28;20275;-74
2022/07/03 09:12:01;;;;;;;2.38;2.15;;;;;37.30;96686.00;;;;8336503;28;20235;-71
2022/07/03 09:16:05;;;;;;;1.83;1.73;;;;;37.40;96690.00;;;;8331877;28;20288;-71
2022/07/03 09:20:09;;;;;;;2.10;2.00;;;;;37.60;96686.00;;;;8341558;28;20259;-73
2022/07/03 09:24:12;;;;;;;2.17;1.92;;;;;37.80;96678.00;;;;8338893;28;20220;-71
2022/07/03 09:28:22;;;;;;;2.35;2.10;;;;;37.90;96669.00;;;;8331510;28;20208;-71
2022/07/03 09:32:26;;;;;;;3.13;1.80;;;;;37.90;96671.00;;;;8332830;28;20216;-72
2022/07/03 09:36:44;;;;;;;1.58;1.58;;;;;38.00;96674.00;;;;8342278;28;20233;-73
2022/07/03 09:40:51;;;;;;;3.40;1.77;;;;;38.30;96666.00;;;;8340087;28;20236;-75
2022/07/03 09:44:56;;;;;;;2.08;1.98;;;;;38.70;96674.00;;;;8338180;28;20308;-74
2022/07/03 09:48:59;;;;;;;6.30;2.22;;;;;39.00;96682.00;;;;8334827;28;20280;-71
2022/07/03 09:53:02;;;;;;;1.73;1.63;;;;;38.80;96676.00;;;;8337640;28;20195;-75
2022/07/03 09:57:12;;;;;;;2.80;1.80;;;;;38.80;96682.00;;;;8332695;28;20207;-75
2022/07/03 10:01:22;;;;;;;3.70;1.67;;;;;37.90;96677.00;;;;8328778;28;20219;-75
2022/07/03 10:05:44;;;;;;;1.60;1.60;;;;;38.90;96669.00;;;;8368260;28;20326;-72
2022/07/03 10:09:47;;;;;;;1.70;1.60;;;;;39.10;96678.00;;;;8373138;28;20204;-75
2022/07/03 10:13:50;;;;;;;2.33;2.10;;;;;39.20;96675.00;;;;8369413;28;20199;-76
2022/07/03 10:17:57;;;;;;;6.68;3.42;;;;;39.10;96668.00;;;;8363542;28;20195;-73
2022/07/03 10:22:16;;;;;;;1.83;1.73;;;;;39.20;96661.00;;;;8371280;28;20249;-75
2022/07/03 10:26:19;;;;;;;10.15;8.30;;;;;38.30;96661.00;;;;8367993;28;20228;-75
2022/07/03 10:30:24;;;;;;;6.90;6.35;;;;;38.30;96652.00;;;;8373143;28;20786;-73
2022/07/03 10:34:29;;;;;;;1.50;1.40;;;;;38.10;96655.00;;;;8371262;28;20287;-74
2022/07/03 10:38:39;;;;;;;1.95;1.58;;;;;38.30;96658.00;;;;8373364;28;20311;-73
2022/07/03 10:47:04;;;;;;;1.33;1.33;;;;;38.90;96656.00;;;;8379318;28;20216;-74
2022/07/03 10:51:14;;;;;;;1.80;1.70;;;;;39.40;96651.00;;;;8381230;28;20200;-71
2022/07/03 10:55:18;;;;;;;1.45;1.40;;;;;39.40;96646.00;;;;8377407;28;20572;-74
2022/07/03 10:59:22;;;;;;;2.05;1.48;;;;;39.20;96646.00;;;;8362194;28;20199;-75
2022/07/03 11:04:00;;;;;;;2.38;1.50;;;;;37.50;96644.00;;;;8367302;28;20237;-75
2022/07/03 11:08:14;;;;;;;1.60;1.50;;;;;37.00;96643.00;;;;8234404;28;20318;-78
2022/07/03 11:12:17;;;;;;;1.63;1.52;;;;;36.80;96630.00;;;;8295660;28;20303;-75
2022/07/03 11:16:23;;;;;;;2.92;1.35;;;;;37.60;96623.00;;;;8354337;28;20652;-77
2022/07/03 11:20:32;;;;;;;1.30;1.30;;;;;38.70;96623.00;;;;8367983;28;20233;-74
2022/07/03 11:24:40;;;;;;;3.33;1.50;;;;;38.50;96621.00;;;;8355130;28;20808;-72
2022/07/03 11:28:50;;;;;;;1.67;1.40;;;;;38.70;96620.00;;;;8370884;28;20204;-76
2022/07/03 11:32:59;;;;;;;2.05;1.60;;;;;39.40;96613.00;;;;8381245;28;20665;-75
2022/07/03 11:37:03;;;;;;;1.52;1.52;;;;;39.40;96609.00;;;;8359936;28;20283;-73
2022/07/03 11:41:10;;;;;;;1.50;1.50;;;;;39.20;96618.00;;;;8359528;28;20307;-74
2022/07/03 11:45:13;;;;;;;1.45;1.45;;;;;39.70;96605.00;;;;8365073;28;20227;-77
2022/07/03 11:49:18;;;;;;;1.50;1.38;;;;;40.10;96609.00;;;;8359736;28;20295;-75
2022/07/03 11:53:25;;;;;;;1.52;1.42;;;;;40.40;96595.00;;;;8363296;28;20201;-75
2022/07/03 11:57:29;;;;;;;1.42;1.40;;;;;40.30;96603.00;;;;8371309;28;20204;-73
2022/07/03 12:01:33;;;;;;;4.30;1.55;;;;;40.20;96600.00;;;;8370862;28;20239;-74
2022/07/03 12:05:37;;;;;;;1.52;1.52;;;;;40.20;96592.00;;;;8371634;28;20331;-71
2022/07/03 12:09:40;;;;;;;1.75;1.30;;;;;40.00;96583.00;;;;8363071;28;20200;-74
2022/07/03 12:13:45;;;;;;;1.63;1.63;;;;;39.10;96596.00;;;;8374652;28;20212;-72
2022/07/03 12:17:48;;;;;;;1.92;1.38;;;;;38.60;96591.00;;;;8376381;28;20231;-73
2022/07/03 12:21:52;;;;;;;2.72;1.30;;;;;39.30;96586.00;;;;8374493;28;20206;-71
2022/07/03 12:25:56;;;;;;;1.67;1.35;;;;;38.90;96567.00;;;;8371934;28;20230;-72
2022/07/03 12:30:01;;;;;;;2.75;1.95;;;;;38.40;96585.00;;;;8374922;28;20200;-74
2022/07/03 12:34:04;;;;;;;2.28;1.20;;;;;38.80;96574.00;;;;8376725;28;20712;-74
2022/07/03 12:38:07;;;;;;;1.20;1.20;;;;;39.30;96574.00;;;;8358956;28;20200;-75
2022/07/03 12:42:20;;;;;;;1.00;1.00;;;;;39.00;96580.00;;;;8365449;28;20193;-73
2022/07/03 12:46:26;;;;;;;1.27;1.27;;;;;38.80;96566.00;;;;8361575;28;20316;-75
2022/07/03 12:50:48;;;;;;;1.10;1.10;;;;;38.60;96578.00;;;;8364887;28;20250;-74
2022/07/03 12:54:52;;;;;;;2.10;1.20;;;;;38.20;96560.00;;;;8360136;28;20197;-73
2022/07/03 13:03:29;;;;;;;2.20;1.35;;;;;37.60;96549.00;;;;8359411;28;20227;-74
2022/07/03 13:07:44;;;;;;;1.25;1.20;;;;;37.30;96541.00;;;;8366715;28;20228;-71
2022/07/03 13:11:47;;;;;;;1.58;1.40;;;;;37.40;96553.00;;;;8368874;28;20283;-71
2022/07/03 13:15:50;;;;;;;1.50;1.20;;;;;37.10;96559.00;;;;8359671;28;20545;-73
2022/07/03 13:19:55;;;;;;;1.40;1.30;;;;;38.20;96548.00;;;;8373526;28;20200;-73
2022/07/03 13:23:59;;;;;;;1.40;1.30;;;;;38.00;96552.00;;;;8372862;28;20210;-73
2022/07/03 13:28:07;;;;;;;2.17;1.20;;;;;38.50;96553.00;;;;8367464;28;20232;-72
2022/07/03 13:32:10;;;;;;;0.95;0.95;;;;;39.00;96556.00;;;;8359754;28;20311;-71
2022/07/03 13:36:16;;;;;;;1.20;1.20;;;;;37.70;96559.00;;;;8364674;28;20181;-70
2022/07/03 13:40:20;;;;;;;1.15;1.15;;;;;38.40;96545.00;;;;8364413;28;20207;-70
2022/07/03 13:44:24;;;;;;;1.30;1.30;;;;;39.60;96540.00;;;;8368591;28;20197;-70
2022/07/03 13:48:27;;;;;;;1.15;1.15;;;;;40.00;96542.00;;;;8380496;28;20232;-70
2022/07/03 13:52:32;;;;;;;1.02;1.02;;;;;40.10;96543.00;;;;8375422;28;20281;-70
2022/07/03 13:56:35;;;;;;;1.05;1.05;;;;;39.90;96545.00;;;;8378011;28;20200;-70
2022/07/03 14:00:39;;;;;;;1.75;1.00;;;;;40.10;96539.00;;;;8371531;28;20196;-71
2022/07/03 14:04:42;;;;;;;1.00;1.00;;;;;40.00;96537.00;;;;8368543;28;20240;-71
2022/07/03 14:08:53;;;;;;;1.10;1.10;;;;;38.40;96543.00;;;;8378931;28;20716;-72
2022/07/03 14:12:56;;;;;;;1.13;1.13;;;;;37.90;96534.00;;;;8374955;28;20196;-72
2022/07/03 14:17:00;;;;;;;1.08;1.05;;;;;38.80;96525.00;;;;8369119;28;20192;-72
2022/07/03 14:21:05;;;;;;;1.45;1.33;;;;;39.50;96524.00;;;;8369252;28;20254;-72
2022/07/03 14:25:12;;;;;;;2.67;1.10;;;;;39.60;96522.00;;;;8376455;28;20679;-72
2022/07/03 14:33:36;;;;;;;1.42;1.10;;;;;39.40;96518.00;;;;8367053;28;20193;-72
2022/07/03 14:37:40;;;;;;;0.90;0.90;;;;;39.20;96517.00;;;;8371075;28;20274;-70
2022/07/03 14:41:48;;;;;;;1.20;1.10;;;;;39.20;96515.00;;;;8367325;28;20206;-69
2022/07/03 14:45:52;;;;;;;1.75;0.98;;;;;39.30;96518.00;;;;8365532;28;20271;-71
2022/07/03 14:49:55;;;;;;;1.10;1.00;;;;;39.50;96514.00;;;;8371044;28;20215;-70
2022/07/03 14:53:58;;;;;;;1.10;1.00;;;;;39.50;96516.00;;;;8380251;28;20232;-70
2022/07/03 14:58:06;;;;;;;1.00;1.00;;;;;39.90;96512.00;;;;8373954;28;20559;-69
2022/07/03 15:02:19;;;;;;;1.17;1.17;;;;;38.50;96516.00;;;;8378121;28;20634;-69
2022/07/03 15:06:24;;;;;;;6.07;1.20;;;;;37.90;96505.00;;;;8378689;28;20231;-70
2022/07/03 15:10:28;;;;;;;1.10;0.90;;;;;38.30;96497.00;;;;8373683;28;20200;-69
2022/07/03 15:14:35;;;;;;;1.05;1.05;;;;;38.80;96485.00;;;;8359527;28;20744;-70
2022/07/03 15:18:44;;;;;;;1.25;1.15;;;;;39.30;96496.00;;;;8365791;28;20203;-69
2022/07/03 15:22:48;;;;;;;1.23;0.95;;;;;39.60;96492.00;;;;8367182;28;20250;-69
2022/07/03 15:26:53;;;;;;;1.10;1.10;;;;;39.70;96488.00;;;;8358711;28;20224;-70
2022/07/03 15:30:58;;;;;;;1.08;1.00;;;;;39.60;96500.00;;;;8367567;28;20196;-69
2022/07/03 15:35:01;;;;;;;1.00;1.00;;;;;39.00;96490.00;;;;8359459;28;20204;-69
2022/07/03 15:39:06;;;;;;;1.13;1.13;;;;;38.80;96480.00;;;;8367174;28;20228;-68
2022/07/03 15:43:37;;;;;;;1.60;1.00;;;;;39.00;96469.00;;;;8361614;28;20660;-68
2022/07/03 15:47:52;;;;;;;1.00;1.00;;;;;39.40;96475.00;;;;8358471;28;20229;-69
2022/07/03 15:52:11;;;;;;;1.42;1.33;;;;;39.40;96476.00;;;;8369878;28;20207;-67
2022/07/03 15:56:17;;;;;;;1.23;1.10;;;;;39.40;96472.00;;;;8359632;28;22088;-70
2022/07/03 16:00:22;;;;;;;1.00;1.00;;;;;39.00;96472.00;;;;8361584;28;20231;-70
2022/07/03 16:04:29;;;;;;;1.52;1.17;;;;;38.80;96475.00;;;;8366743;28;20705;-70
2022/07/03 16:08:34;;;;;;;1.15;1.15;;;;;38.50;96470.00;;;;8364822;28;20251;-69
2022/07/03 16:12:38;;;;;;;2.30;1.13;;;;;38.60;96475.00;;;;8369620;28;20707;-69
2022/07/03 16:16:44;;;;;;;1.00;1.00;;;;;38.70;96466.00;;;;8363443;28;20196;-69
2022/07/03 16:20:51;;;;;;;1.10;1.00;;;;;38.90;96470.00;;;;8370436;28;20294;-68
2022/07/03 16:24:57;;;;;;;1.20;1.10;;;;;39.00;96470.00;;;;8376443;28;20200;-67
2022/07/03 16:29:00;;;;;;;2.80;1.23;;;;;38.40;96465.00;;;;8370070;28;20676;-68
2022/07/03 16:33:04;;;;;;;0.98;0.98;;;;;38.50;96460.00;;;;8368992;28;20286;-68
2022/07/03 16:37:13;;;;;;;1.10;1.10;;;;;38.80;96464.00;;;;8364864;28;20202;-70
2022/07/03 16:41:21;;;;;;;1.20;1.20;;;;;38.80;96452.00;;;;8379738;28;20201;-67
2022/07/03 16:45:27;;;;;;;1.13;1.13;;;;;38.60;96459.00;;;;8380681;28;20192;-68
2022/07/03 16:49:33;;;;;;;1.20;1.10;;;;;38.40;96463.00;;;;8376839;28;20234;-69
2022/07/03 16:53:40;;;;;;;1.17;1.13;;;;;38.40;96460.00;;;;8368575;28;20199;-67
2022/07/03 16:57:46;;;;;;;1.92;1.10;;;;;38.60;96465.00;;;;8375907;28;20287;-68
2022/07/03 17:01:52;;;;;;;3.70;1.10;;;;;38.60;96463.00;;;;8363868;28;20208;-68
2022/07/03 17:05:57;;;;;;;1.27;1.13;;;;;38.60;96467.00;;;;8342435;28;20268;-71
2022/07/03 17:10:03;;;;;;;1.75;0.98;;;;;38.30;96459.00;;;;8341532;28;20216;-68
2022/07/03 17:14:06;;;;;;;1.13;1.13;;;;;37.90;96462.00;;;;8345367;28;20252;-66
2022/07/03 17:18:09;;;;;;;1.02;1.02;;;;;38.10;96467.00;;;;8333628;28;20232;-67
2022/07/03 17:22:16;;;;;;;1.02;1.02;;;;;38.40;96460.00;;;;8339951;28;20204;-65
2022/07/03 17:26:33;;;;;;;1.13;1.13;;;;;38.60;96464.00;;;;8333446;28;20670;-67
2022/07/03 17:30:40;;;;;;;1.20;1.20;;;;;38.80;96460.00;;;;8348274;28;20213;-68
2022/07/03 17:34:48;;;;;;;1.48;1.30;;;;;39.20;96455.00;;;;8361582;28;20201;-71
2022/07/03 17:38:53;;;;;;;1.58;1.00;;;;;39.30;96455.00;;;;8343801;28;20235;-67
2022/07/03 17:42:58;;;;;;;2.05;1.10;;;;;39.50;96457.00;;;;8353773;28;20213;-67
2022/07/03 17:47:03;;;;;;;2.22;0.90;;;;;39.90;96457.00;;;;8350069;28;20220;-66
2022/07/03 17:51:08;;;;;;;3.40;1.20;;;;;40.20;96454.00;;;;8343048;28;20200;-67
2022/07/03 17:55:13;;;;;;;2.25;1.15;;;;;40.30;96452.00;;;;8343007;28;20215;-66
2022/07/03 17:59:18;;;;;;;1.05;1.00;;;;;39.40;96458.00;;;;8342847;28;20197;-68
2022/07/03 18:03:22;;;;;;;0.85;0.85;;;;;37.70;96451.00;;;;8330124;28;20328;-66
2022/07/03 18:07:31;;;;;;;1.05;1.00;;;;;36.30;96455.00;;;;8335789;28;20229;-66
2022/07/03 18:11:42;;;;;;;1.77;0.90;;;;;35.10;96462.00;;;;8326451;28;20212;-64
2022/07/03 18:15:54;;;;;;;0.98;0.90;;;;;34.10;96453.00;;;;8351321;28;20284;-66
2022/07/03 18:20:01;;;;;;;1.05;0.95;;;;;33.30;96454.00;;;;8341745;28;20201;-65
2022/07/03 18:24:12;;;;;;;0.90;0.90;;;;;32.60;96451.00;;;;8328314;28;20291;-64
2022/07/03 18:28:16;;;;;;;1.45;1.00;;;;;31.90;96449.00;;;;8343103;28;20238;-65
2022/07/03 18:32:21;;;;;;;0.75;0.75;;;;;31.30;96455.00;;;;8351003;28;20239;-66
2022/07/03 18:36:25;;;;;;;1.80;1.25;;;;;30.60;96454.00;;;;8340148;28;20284;-65
2022/07/03 18:40:29;;;;;;;2.55;1.00;;;;;29.80;96446.00;;;;8345916;28;20754;-64
2022/07/03 18:44:33;;;;;;;1.08;1.08;;;;;29.10;96453.00;;;;8331060;28;20210;-64
2022/07/03 18:48:38;;;;;;;1.23;1.15;;;;;28.30;96450.00;;;;8329872;28;20306;-65
2022/07/03 18:52:50;;;;;;;2.58;1.15;;;;;27.60;96457.00;;;;8331083;28;20220;-64
2022/07/03 18:57:02;;;;;;;0.95;0.95;;;;;27.00;96451.00;;;;8331466;28;20292;-63
2022/07/03 19:01:09;;;;;;;1.73;1.17;;;;;26.50;96460.00;;;;8325201;28;20684;-63
2022/07/03 19:05:14;;;;;;;1.38;1.10;;;;;26.00;96457.00;;;;8347545;28;20972;-66
2022/07/03 19:09:27;;;;;;;1.05;1.05;;;;;25.60;96456.00;;;;8343892;28;20231;-64
2022/07/03 19:13:40;;;;;;;3.70;1.10;;;;;25.20;96456.00;;;;8349824;28;20219;-68
2022/07/03 19:17:44;;;;;;;1.50;1.40;;;;;24.90;96458.00;;;;8340992;28;20209;-69
2022/07/03 19:21:48;;;;;;;1.17;1.17;;;;;24.60;96457.00;;;;8343492;28;20192;-69
2022/07/03 19:25:52;;;;;;;1.25;1.15;;;;;24.20;96458.00;;;;8342433;28;20550;-66
2022/07/03 19:29:55;;;;;;;2.03;1.38;;;;;23.90;96454.00;;;;8334209;28;20741;-67
2022/07/03 19:33:58;;;;;;;1.50;1.40;;;;;23.60;96455.00;;;;8334306;28;20634;-67
2022/07/03 19:38:05;;;;;;;1.17;1.17;;;;;23.20;96448.00;;;;8334749;28;20763;-66
2022/07/03 19:42:09;;;;;;;3.75;1.63;;;;;22.90;96442.00;;;;8342494;28;20283;-65
2022/07/03 19:46:16;;;;;;;3.53;1.60;;;;;22.60;96444.00;;;;8336586;28;20786;-64
2022/07/03 19:50:20;;;;;;;2.95;1.70;;;;;22.40;96444.00;;;;8339055;28;20221;-67
2022/07/03 19:54:25;;;;;;;1.90;1.50;;;;;22.20;96449.00;;;;8348719;28;20224;-66
2022/07/03 19:58:28;;;;;;;2.38;1.58;;;;;22.10;96453.00;;;;8345199;28;20304;-66
2022/07/03 20:02:31;;;;;;;2.22;1.50;;;;;21.90;96456.00;;;;8331847;28;20224;-65
2022/07/03 20:06:34;;;;;;;2.75;1.42;;;;;21.80;96451.00;;;;8371803;28;20689;-67
2022/07/03 20:10:39;;;;;;;3.67;2.00;;;;;21.60;96457.00;;;;8377463;28;20858;-66
2022/07/03 20:14:43;;;;;;;2.80;1.25;;;;;21.50;96452.00;;;;8379245;28;20733;-65
2022/07/03 20:18:47;;;;;;;1.10;1.10;;;;;21.40;96447.00;;;;8379497;28;20184;-65
2022/07/03 20:22:51;;;;;;;2.67;1.40;;;;;21.30;96448.00;;;;8383687;28;20805;-67
2022/07/03 20:26:56;;;;;;;1.63;1.52;;;;;21.30;96438.00;;;;8366678;28;20307;-66
2022/07/03 20:30:59;;;;;;;2.45;1.33;;;;;21.10;96444.00;;;;8372138;28;20254;-63
2022/07/03 20:35:08;;;;;;;1.48;1.27;;;;;20.90;96446.00;;;;8379803;28;20634;-67
2022/07/03 20:39:11;;;;;;;1.27;1.27;;;;;20.80;96442.00;;;;8374657;28;20490;-66
2022/07/03 20:43:16;;;;;;;2.38;1.58;;;;;20.60;96442.00;;;;8374507;28;20581;-66
2022/07/03 20:47:19;;;;;;;1.67;1.50;;;;;20.40;96444.00;;;;8367225;28;20200;-65
2022/07/03 20:51:23;;;;;;;3.10;1.60;;;;;20.30;96440.00;;;;8371955;28;20231;-65
2022/07/03 20:55:27;;;;;;;2.13;1.50;;;;;20.20;96441.00;;;;8362386;28;20225;-65
2022/07/03 20:59:32;;;;;;;5.03;1.50;;;;;20.20;96429.00;;;;8370833;28;20892;-66